createdAt,value
2019-06-10T00:02:11.487Z,100779.22
2019-06-10T00:04:50.842Z,100767.53
2019-06-10T00:07:21.193Z,100778.84
2019-06-10T00:09:53.658Z,100771.75
2019-06-10T00:12:23.572Z,100778.60
2019-06-10T00:14:53.282Z,100763.42
2019-06-10T00:17:27.048Z,100770.28
2019-06-10T00:19:57.170Z,100762.34
2019-06-10T00:22:26.937Z,100768.24
2019-06-10T00:24:57.517Z,100760.67
2019-06-10T00:27:31.177Z,100763.19
2019-06-10T00:30:04.321Z,100754.77
2019-06-10T00:32:46.133Z,100749.71
2019-06-10T00:35:18.120Z,100743.70
2019-06-10T00:37:51.190Z,100741.91
2019-06-10T00:40:21.572Z,100737.80
2019-06-10T00:42:53.709Z,100734.55
2019-06-10T00:45:28.259Z,100735.05
2019-06-10T00:48:13.517Z,100734.20
2019-06-10T00:50:44.436Z,100728.06
2019-06-10T00:53:21.349Z,100720.73
2019-06-10T00:55:56.712Z,100729.86
2019-06-10T00:58:31.786Z,100723.99
2019-06-10T01:01:02.640Z,100724.23
2019-06-10T01:03:32.095Z,100708.11
2019-06-10T01:06:06.372Z,100712.18
2019-06-10T01:08:37.565Z,100699.32
2019-06-10T01:11:23.661Z,100698.71
2019-06-10T01:13:54.390Z,100696.91
2019-06-10T01:16:27.315Z,100700.25
2019-06-10T01:19:01.480Z,100702.05
2019-06-10T01:21:41.440Z,100698.45
2019-06-10T01:24:24.862Z,100689.34
2019-06-10T01:26:57.878Z,100690.42
2019-06-10T01:29:31.409Z,100690.00
2019-06-10T01:32:05.185Z,100693.60
2019-06-10T01:34:41.548Z,100686.88
2019-06-10T01:37:14.325Z,100686.03
2019-06-10T01:39:53.254Z,100678.47
2019-06-10T01:42:35.587Z,100682.05
2019-06-10T01:45:01.145Z,100686.50
2019-06-10T01:47:34.926Z,100681.34
2019-06-10T01:50:19.638Z,100666.89
2019-06-10T01:53:04.285Z,100670.84
2019-06-10T01:55:36.448Z,100669.18
2019-06-10T01:58:14.437Z,100672.53
2019-06-10T02:00:55.120Z,100668.20
2019-06-10T02:03:31.146Z,100663.76
2019-06-10T02:06:01.729Z,100651.39
2019-06-10T02:08:35.400Z,100652.10
2019-06-10T02:11:14.099Z,100641.89
2019-06-10T02:13:43.367Z,100644.63
2019-06-10T02:16:24.081Z,100623.98
2019-06-10T02:19:07.534Z,100622.42
2019-06-10T02:21:45.946Z,100616.38
2019-06-10T02:24:23.498Z,100615.90
2019-06-10T02:27:01.067Z,100605.56
2019-06-10T02:29:36.517Z,100596.91
2019-06-10T02:32:06.413Z,100605.08
2019-06-10T02:34:50.630Z,100589.34
2019-06-10T02:37:17.317Z,100585.87
2019-06-10T02:39:54.151Z,100577.81
2019-06-10T02:42:35.526Z,100582.75
2019-06-10T02:45:06.032Z,100576.00
2019-06-10T02:47:38.439Z,100572.28
2019-06-10T02:50:14.173Z,100576.00
2019-06-10T02:52:44.343Z,100581.75
2019-06-10T02:55:15.607Z,100584.62
2019-06-10T02:57:45.607Z,100584.16
2019-06-10T03:00:23.437Z,100579.63
2019-06-10T03:02:47.523Z,100579.86
2019-06-10T03:05:19.567Z,100571.31
2019-06-10T03:07:48.652Z,100575.14
2019-06-10T03:10:21.115Z,100577.91
2019-06-10T03:12:49.947Z,100582.94
2019-06-10T03:15:19.951Z,100581.47
2019-06-10T03:17:52.005Z,100578.96
2019-06-10T03:20:26.551Z,100577.16
2019-06-10T03:22:56.371Z,100583.30
2019-06-10T03:25:27.377Z,100580.13
2019-06-10T03:27:57.477Z,100581.73
2019-06-10T03:30:41.276Z,100578.11
2019-06-10T03:32:58.473Z,100580.88
2019-06-10T03:35:28.490Z,100574.98
2019-06-10T03:37:58.348Z,100573.28
2019-06-10T03:40:28.336Z,100578.57
2019-06-10T03:42:58.107Z,100577.85
2019-06-10T03:45:28.525Z,100576.28
2019-06-10T03:47:58.232Z,100574.69
2019-06-10T03:50:28.729Z,100575.56
2019-06-10T03:53:01.131Z,100579.06
2019-06-10T03:55:33.106Z,100567.84
2019-06-10T03:58:02.405Z,100570.77
2019-06-10T04:00:32.772Z,100564.41
2019-06-10T04:03:02.796Z,100571.49
2019-06-10T04:05:33.203Z,100565.27
2019-06-10T04:11:15.057Z,100555.71
2019-06-10T04:13:44.774Z,100550.75
2019-06-10T04:16:14.423Z,100550.20
2019-06-10T04:18:44.090Z,100549.03
2019-06-10T04:21:13.750Z,100553.56
2019-06-10T04:23:43.430Z,100541.30
2019-06-10T04:26:13.171Z,100550.06
2019-06-10T04:28:43.206Z,100550.59
2019-06-10T04:31:13.263Z,100546.64
2019-06-10T04:33:43.344Z,100540.88
2019-06-10T04:36:13.582Z,100544.46
2019-06-10T04:38:43.948Z,100533.60
2019-06-10T04:41:13.624Z,100534.45
2019-06-10T04:43:43.443Z,100522.23
2019-06-10T04:46:13.404Z,100528.32
2019-06-10T04:48:43.160Z,100528.94
2019-06-10T04:51:13.157Z,100528.94
2019-06-10T04:53:43.842Z,100526.23
2019-06-10T04:56:13.471Z,100521.86
2019-06-10T04:58:43.771Z,100517.33
2019-06-10T05:01:13.402Z,100522.81
2019-06-10T05:03:43.482Z,100516.95
2019-06-10T05:06:13.227Z,100514.17
2019-06-10T05:08:42.991Z,100516.25
2019-06-10T05:11:12.994Z,100519.89
2019-06-10T05:13:43.136Z,100516.17
2019-06-10T05:16:12.994Z,100521.23
2019-06-10T05:18:42.683Z,100527.70
2019-06-10T05:21:13.145Z,100529.14
2019-06-10T05:23:43.205Z,100532.39
2019-06-10T05:26:13.420Z,100527.23
2019-06-10T05:28:43.544Z,100530.59
2019-06-10T05:31:13.268Z,100525.55
2019-06-10T05:33:42.900Z,100529.65
2019-06-10T05:36:13.374Z,100527.95
2019-06-10T05:38:43.737Z,100524.46
2019-06-10T05:41:13.718Z,100524.23
2019-06-10T05:43:43.392Z,100510.91
2019-06-10T05:46:13.548Z,100523.52
2019-06-10T05:48:43.837Z,100518.48
2019-06-10T05:51:13.633Z,100519.09
2019-06-10T05:53:45.735Z,100511.73
2019-06-10T05:56:14.647Z,100504.78
2019-06-10T05:58:44.424Z,100496.00
2019-06-10T06:01:14.038Z,100500.81
2019-06-10T06:03:44.439Z,100498.17
2019-06-10T06:06:14.307Z,100512.34
2019-06-10T06:08:43.995Z,100507.53
2019-06-10T06:11:13.688Z,100500.67
2019-06-10T06:13:43.434Z,100504.64
2019-06-10T06:16:13.109Z,100499.72
2019-06-10T06:18:42.879Z,100505.47
2019-06-10T06:21:25.661Z,100504.25
2019-06-10T06:23:44.058Z,100510.14
2019-06-10T06:26:16.289Z,100508.84
2019-06-10T06:28:45.083Z,100511.84
2019-06-10T06:31:14.716Z,100514.81
2019-06-10T06:33:44.489Z,100511.33
2019-06-10T06:36:15.151Z,100503.77
2019-06-10T06:38:44.769Z,100502.08
2019-06-10T06:41:14.514Z,100499.19
2019-06-10T06:43:45.460Z,100496.30
2019-06-10T06:46:15.296Z,100506.63
2019-06-10T06:48:45.059Z,100506.50
2019-06-10T06:51:14.822Z,100499.05
2019-06-10T06:53:51.738Z,100498.52
2019-06-10T06:56:15.958Z,100507.91
2019-06-10T06:58:45.665Z,100510.91
2019-06-10T07:01:16.063Z,100505.47
2019-06-10T07:03:45.759Z,100497.03
2019-06-10T07:06:16.607Z,100497.34
2019-06-10T07:09:01.546Z,100502.28
2019-06-10T07:11:19.626Z,100499.28
2019-06-10T07:13:49.724Z,100506.77
2019-06-10T07:16:23.040Z,100493.88
2019-06-10T07:18:53.981Z,100491.80
2019-06-10T07:21:23.306Z,100494.59
2019-06-10T07:23:53.100Z,100496.73
2019-06-10T07:26:22.800Z,100487.63
2019-06-10T07:28:53.678Z,100495.63
2019-06-10T07:31:27.717Z,100491.40
2019-06-10T07:33:55.103Z,100488.80
2019-06-10T07:36:24.907Z,100478.01
2019-06-10T07:38:54.628Z,100484.07
2019-06-10T07:41:24.407Z,100486.75
2019-06-10T07:43:55.037Z,100478.80
2019-06-10T07:46:24.686Z,100483.98
2019-06-10T07:48:56.622Z,100480.66
2019-06-10T07:51:25.892Z,100480.56
2019-06-10T07:53:55.563Z,100477.77
2019-06-10T07:56:29.745Z,100481.02
2019-06-10T07:58:58.671Z,100478.44
2019-06-10T08:01:28.386Z,100487.55
2019-06-10T08:03:58.217Z,100469.70
2019-06-10T08:06:27.997Z,100475.15
2019-06-10T08:09:01.921Z,100462.45
2019-06-10T08:11:37.174Z,100459.50
2019-06-10T08:14:07.736Z,100454.33
2019-06-10T08:16:37.829Z,100450.34
2019-06-10T08:19:26.357Z,100452.08
2019-06-10T08:21:40.642Z,100441.86
2019-06-10T08:24:12.681Z,100449.09
2019-06-10T08:26:44.282Z,100444.59
2019-06-10T08:29:13.586Z,100433.63
2019-06-10T08:31:46.342Z,100443.94
2019-06-10T08:34:15.118Z,100439.93
2019-06-10T08:36:48.804Z,100424.88
2019-06-10T08:39:16.202Z,100423.23
2019-06-10T08:41:47.816Z,100418.75
2019-06-10T08:44:17.312Z,100427.72
2019-06-10T08:46:48.575Z,100419.80
2019-06-10T08:49:18.484Z,100414.94
2019-06-10T08:51:50.164Z,100413.97
2019-06-10T08:54:23.445Z,100410.96
2019-06-10T08:56:54.094Z,100407.52
2019-06-10T08:59:24.176Z,100416.02
2019-06-10T09:01:56.922Z,100405.98
2019-06-10T09:04:28.763Z,100399.42
2019-06-10T09:06:57.246Z,100390.98
2019-06-10T09:09:26.992Z,100393.61
2019-06-10T09:11:56.973Z,100390.94
2019-06-10T09:14:26.895Z,100392.69
2019-06-10T09:16:57.131Z,100393.44
2019-06-10T09:19:27.520Z,100394.63
2019-06-10T09:21:57.475Z,100395.05
2019-06-10T09:24:27.905Z,100389.53
2019-06-10T09:26:57.519Z,100385.34
2019-06-10T09:29:27.666Z,100385.66
2019-06-10T09:31:57.419Z,100390.31
2019-06-10T09:34:27.174Z,100392.36
2019-06-10T09:36:57.410Z,100390.70
2019-06-10T09:42:01.487Z,100400.44
2019-06-10T09:44:28.814Z,100391.46
2019-06-10T09:47:03.349Z,100395.99
2019-06-10T09:49:33.583Z,100386.81
2019-06-10T09:52:13.499Z,100386.30
2019-06-10T09:54:48.796Z,100377.17
2019-06-10T09:57:16.000Z,100382.84
2019-06-10T09:59:49.671Z,100375.67
2019-06-10T10:02:17.202Z,100372.64
2019-06-10T10:04:52.242Z,100369.63
2019-06-10T10:07:19.438Z,100361.80
2019-06-10T10:09:51.850Z,100363.15
2019-06-10T10:12:22.799Z,100353.30
2019-06-10T10:14:56.139Z,100357.81
2019-06-10T10:17:24.829Z,100356.67
2019-06-10T10:19:57.018Z,100348.47
2019-06-10T10:22:26.635Z,100342.14
2019-06-10T10:24:57.245Z,100341.42
2019-06-10T10:27:28.047Z,100345.08
2019-06-10T10:29:57.853Z,100348.17
2019-06-10T10:32:27.705Z,100337.13
2019-06-10T10:34:58.036Z,100342.83
2019-06-10T10:37:27.675Z,100338.59
2019-06-10T10:40:19.871Z,100324.23
2019-06-10T10:43:32.972Z,100323.58
2019-06-10T10:45:52.041Z,100320.17
2019-06-10T10:48:22.613Z,100323.14
2019-06-10T10:50:55.848Z,100324.94
2019-06-10T10:53:24.085Z,100316.95
2019-06-10T10:55:54.220Z,100324.33
2019-06-10T10:58:23.991Z,100322.16
2019-06-10T11:00:56.768Z,100318.34
2019-06-10T11:03:25.803Z,100319.64
2019-06-10T11:06:00.628Z,100304.31
2019-06-10T11:08:27.958Z,100302.05
2019-06-10T11:11:01.109Z,100303.12
2019-06-10T11:13:35.654Z,100307.67
2019-06-10T11:16:06.632Z,100300.50
2019-06-10T11:18:37.041Z,100301.42
2019-06-10T11:21:18.988Z,100293.33
2019-06-10T11:23:50.103Z,100291.86
2019-06-10T11:26:32.726Z,100277.68
2019-06-10T11:29:02.912Z,100272.59
2019-06-10T11:31:32.956Z,100260.14
2019-06-10T11:34:03.326Z,100255.91
2019-06-10T11:36:34.940Z,100263.38
2019-06-10T11:39:18.121Z,100262.38
2019-06-10T11:41:52.475Z,100255.39
2019-06-10T11:44:23.795Z,100251.73
2019-06-10T11:46:57.541Z,100251.22
2019-06-10T11:49:25.638Z,100252.38
2019-06-10T11:51:56.521Z,100254.91
2019-06-10T11:54:27.287Z,100255.06
2019-06-10T11:56:58.591Z,100250.89
2019-06-10T11:59:29.441Z,100253.56
2019-06-10T12:02:05.007Z,100259.64
2019-06-10T12:04:33.074Z,100248.60
2019-06-10T12:07:03.406Z,100252.57
2019-06-10T12:09:36.779Z,100253.22
2019-06-10T12:12:28.255Z,100248.94
2019-06-10T12:15:01.261Z,100246.77
2019-06-10T12:17:42.953Z,100246.73
2019-06-10T12:20:03.240Z,100247.22
2019-06-10T12:22:33.744Z,100251.05
2019-06-10T12:25:30.364Z,100240.19
2019-06-10T12:27:37.733Z,100241.52
2019-06-10T12:30:22.435Z,100240.83
2019-06-10T12:32:57.184Z,100234.39
2019-06-10T12:35:32.949Z,100229.04
2019-06-10T12:38:06.192Z,100220.20
2019-06-10T12:40:36.731Z,100216.85
2019-06-10T12:43:07.813Z,100224.82
2019-06-10T12:45:46.160Z,100222.50
2019-06-10T12:48:18.398Z,100214.33
2019-06-10T12:50:48.216Z,100210.02
2019-06-10T12:53:18.107Z,100191.59
2019-06-10T12:55:48.980Z,100210.17
2019-06-10T12:58:22.580Z,100200.31
2019-06-10T13:00:59.405Z,100195.08
2019-06-10T13:03:29.365Z,100188.53
2019-06-10T13:06:07.230Z,100189.85
2019-06-10T13:08:39.094Z,100187.31
2019-06-10T13:11:13.048Z,100194.64
2019-06-10T13:13:42.694Z,100199.26
2019-06-10T13:16:14.365Z,100197.36
2019-06-10T13:18:44.851Z,100185.11
2019-06-10T13:21:17.770Z,100184.76
2019-06-10T13:23:54.190Z,100185.66
2019-06-10T13:26:24.122Z,100172.44
2019-06-10T13:28:54.159Z,100172.44
2019-06-10T13:31:24.674Z,100175.47
2019-06-10T13:33:54.734Z,100165.02
2019-06-10T13:36:26.158Z,100168.41
2019-06-10T13:39:03.968Z,100163.59
2019-06-10T13:41:39.413Z,100158.59
2019-06-10T13:44:15.296Z,100151.56
2019-06-10T13:46:43.560Z,100160.62
2019-06-10T13:49:15.415Z,100161.91
2019-06-10T13:51:46.803Z,100149.92
2019-06-10T13:54:16.929Z,100150.24
2019-06-10T13:56:47.931Z,100149.75
2019-06-10T13:59:18.575Z,100147.56
2019-06-10T14:01:49.844Z,100140.38
2019-06-10T14:04:25.416Z,100144.41
2019-06-10T14:06:57.080Z,100145.59
2019-06-10T14:09:25.591Z,100131.92
2019-06-10T14:12:02.120Z,100142.43
2019-06-10T14:14:42.384Z,100139.11
2019-06-10T14:17:07.808Z,100134.76
2019-06-10T14:19:37.287Z,100126.93
2019-06-10T14:22:09.548Z,100127.58
2019-06-10T14:24:42.109Z,100121.52
2019-06-10T14:27:17.228Z,100123.84
2019-06-10T14:30:06.593Z,100115.34
2019-06-10T14:32:43.245Z,100112.17
2019-06-10T14:35:16.268Z,100122.52
2019-06-10T14:37:47.476Z,100129.90
2019-06-10T14:40:26.846Z,100121.58
2019-06-10T14:43:10.364Z,100123.91
2019-06-10T14:45:42.333Z,100117.91
2019-06-10T14:48:26.313Z,100113.55
2019-06-10T14:50:58.534Z,100123.91
2019-06-10T14:53:30.199Z,100118.91
2019-06-10T14:56:17.282Z,100113.20
2019-06-10T14:58:46.369Z,100108.75
2019-06-10T15:01:21.964Z,100120.09
2019-06-10T15:03:54.640Z,100124.25
2019-06-10T15:06:24.401Z,100123.06
2019-06-10T15:08:56.075Z,100114.55
2019-06-10T15:11:28.020Z,100118.06
2019-06-10T15:13:58.410Z,100122.77
2019-06-10T15:16:29.059Z,100117.96
2019-06-10T15:19:11.770Z,100113.96
2019-06-10T15:21:32.381Z,100115.64
2019-06-10T15:24:02.988Z,100115.80
2019-06-10T15:26:33.909Z,100121.63
2019-06-10T15:29:04.098Z,100112.97
2019-06-10T15:31:37.314Z,100098.76
2019-06-10T15:34:08.572Z,100092.77
2019-06-10T15:36:38.991Z,100100.30
2019-06-10T15:39:11.693Z,100104.94
2019-06-10T15:41:42.886Z,100103.75
2019-06-10T15:44:15.736Z,100090.89
2019-06-10T15:46:44.179Z,100088.27
2019-06-10T15:49:17.563Z,100097.42
2019-06-10T15:51:46.187Z,100088.46
2019-06-10T15:54:18.779Z,100079.16
2019-06-10T15:56:52.826Z,100078.50
2019-06-10T15:59:21.350Z,100079.94
2019-06-10T16:01:53.087Z,100081.65
2019-06-10T16:04:25.779Z,100093.17
2019-06-10T16:06:54.602Z,100094.00
2019-06-10T16:09:24.305Z,100097.13
2019-06-10T16:11:54.872Z,100088.05
2019-06-10T16:14:25.505Z,100085.69
2019-06-10T16:16:55.918Z,100085.02
2019-06-10T16:19:28.733Z,100080.05
2019-06-10T16:21:58.447Z,100083.86
2019-06-10T16:24:28.710Z,100087.02
2019-06-10T16:26:58.689Z,100086.16
2019-06-10T16:29:28.433Z,100093.16
2019-06-10T16:31:58.286Z,100097.36
2019-06-10T16:34:29.105Z,100089.19
2019-06-10T16:36:58.919Z,100090.21
2019-06-10T16:39:28.646Z,100090.84
2019-06-10T16:41:58.879Z,100101.53
2019-06-10T16:44:35.494Z,100095.56
2019-06-10T16:47:03.043Z,100106.72
2019-06-10T16:49:32.873Z,100119.58
2019-06-10T16:52:03.064Z,100121.92
2019-06-10T16:54:33.165Z,100110.59
2019-06-10T16:57:03.960Z,100107.44
2019-06-10T16:59:33.982Z,100117.44
2019-06-10T17:02:04.360Z,100115.43
2019-06-10T17:04:34.081Z,100111.59
2019-06-10T17:07:03.907Z,100115.58
2019-06-10T17:09:33.605Z,100115.75
2019-06-10T17:12:14.000Z,100109.27
2019-06-10T17:14:43.788Z,100106.27
2019-06-10T17:17:13.647Z,100104.27
2019-06-10T17:19:43.867Z,100101.78
2019-06-10T17:22:13.776Z,100090.91
2019-06-10T17:24:43.590Z,100109.27
2019-06-10T17:27:13.340Z,100112.77
2019-06-10T17:29:44.222Z,100111.92
2019-06-10T17:32:13.956Z,100100.21
2019-06-10T17:34:43.696Z,100092.70
2019-06-10T17:37:13.572Z,100092.33
2019-06-10T17:39:43.628Z,100096.98
2019-06-10T17:42:15.823Z,100096.29
2019-06-10T17:44:46.426Z,100104.13
2019-06-10T17:47:16.102Z,100109.46
2019-06-10T17:49:46.682Z,100104.66
2019-06-10T17:52:16.605Z,100090.97
2019-06-10T17:54:46.291Z,100096.29
2019-06-10T17:57:15.996Z,100091.14
2019-06-10T17:59:45.842Z,100080.63
2019-06-10T18:02:15.787Z,100092.13
2019-06-10T18:04:45.520Z,100081.79
2019-06-10T18:07:15.729Z,100080.25
2019-06-10T18:09:45.468Z,100082.62
2019-06-10T18:12:15.181Z,100087.64
2019-06-10T18:14:52.344Z,100076.78
2019-06-10T18:17:23.845Z,100081.72
2019-06-10T18:19:55.143Z,100090.03
2019-06-10T18:22:37.094Z,100101.37
2019-06-10T18:25:16.897Z,100104.35
2019-06-10T18:27:52.382Z,100106.98
2019-06-10T18:30:29.451Z,100116.61
2019-06-10T18:33:02.965Z,100114.30
2019-06-10T18:35:37.568Z,100111.46
2019-06-10T18:38:08.974Z,100109.11
2019-06-10T18:40:42.808Z,100108.97
2019-06-10T18:43:13.796Z,100112.75
2019-06-10T18:45:45.918Z,100113.59
2019-06-10T18:48:16.890Z,100116.88
2019-06-10T18:50:48.117Z,100118.87
2019-06-10T18:53:23.238Z,100126.72
2019-06-10T18:55:54.849Z,100124.20
2019-06-10T18:58:27.787Z,100109.69
2019-06-10T19:01:03.932Z,100104.02
2019-06-10T19:03:34.706Z,100087.83
2019-06-10T19:06:05.090Z,100090.35
2019-06-10T19:08:38.622Z,100081.84
2019-06-10T19:11:08.604Z,100078.82
2019-06-10T19:13:40.957Z,100086.66
2019-06-10T19:16:13.001Z,100098.42
2019-06-10T19:18:44.366Z,100093.58
2019-06-10T19:21:15.765Z,100083.56
2019-06-10T19:23:46.815Z,100096.05
2019-06-10T19:26:18.291Z,100092.55
2019-06-10T19:28:50.002Z,100092.69
2019-06-10T19:31:21.059Z,100084.20
2019-06-10T19:33:52.052Z,100087.17
2019-06-10T19:36:23.217Z,100085.77
2019-06-10T19:38:57.885Z,100089.27
2019-06-10T19:41:28.983Z,100092.23
2019-06-10T19:44:02.478Z,100098.03
2019-06-10T19:46:34.294Z,100105.16
2019-06-10T19:49:07.392Z,100105.47
2019-06-10T19:51:39.002Z,100110.11
2019-06-10T19:54:12.379Z,100109.88
2019-06-10T19:56:43.791Z,100105.34
2019-06-10T19:59:15.589Z,100113.44
2019-06-10T20:01:48.765Z,100121.21
2019-06-10T20:04:22.521Z,100120.20
2019-06-10T20:06:53.730Z,100117.41
2019-06-10T20:09:25.579Z,100130.53
2019-06-10T20:11:56.588Z,100134.58
2019-06-10T20:14:27.447Z,100124.08
2019-06-10T20:16:58.445Z,100135.55
2019-06-10T20:19:29.788Z,100142.84
2019-06-10T20:22:00.678Z,100143.83
2019-06-10T20:24:31.282Z,100139.81
2019-06-10T20:27:03.191Z,100139.27
2019-06-10T20:29:35.698Z,100145.05
2019-06-10T20:32:06.394Z,100140.71
2019-06-10T20:34:37.528Z,100143.67
2019-06-10T20:37:09.826Z,100139.79
2019-06-10T20:39:43.177Z,100135.11
2019-06-10T20:42:13.991Z,100135.40
2019-06-10T20:44:46.288Z,100129.67
2019-06-10T20:47:17.376Z,100137.22
2019-06-10T20:49:51.940Z,100137.80
2019-06-10T20:52:22.187Z,100141.09
2019-06-10T20:54:53.432Z,100141.48
2019-06-10T20:57:24.473Z,100139.76
2019-06-10T20:59:55.450Z,100146.21
2019-06-10T21:02:27.576Z,100160.78
2019-06-10T21:05:02.579Z,100161.50
2019-06-10T21:07:33.160Z,100172.39
2019-06-10T21:10:06.671Z,100189.86
2019-06-10T21:12:37.950Z,100198.50
2019-06-10T21:15:09.760Z,100196.54
2019-06-10T21:17:42.981Z,100189.30
2019-06-10T21:20:13.632Z,100179.95
2019-06-10T21:22:45.704Z,100177.28
2019-06-10T21:25:16.797Z,100186.91
2019-06-10T21:27:49.563Z,100181.88
2019-06-10T21:30:36.557Z,100186.69
2019-06-10T21:32:54.795Z,100193.02
2019-06-10T21:35:27.867Z,100207.52
2019-06-10T21:37:58.857Z,100203.30
2019-06-10T21:40:30.061Z,100211.64
2019-06-10T21:43:02.993Z,100200.99
2019-06-10T21:45:32.825Z,100214.81
2019-06-10T21:48:02.653Z,100225.13
2019-06-10T21:50:33.406Z,100218.73
2019-06-10T21:53:03.440Z,100219.04
2019-06-10T21:55:33.421Z,100209.14
2019-06-10T21:58:03.938Z,100216.66
2019-06-10T22:00:52.881Z,100199.50
2019-06-10T22:03:13.737Z,100188.91
2019-06-10T22:05:44.218Z,100195.47
2019-06-10T22:08:15.370Z,100189.06
2019-06-10T22:10:45.903Z,100184.73
2019-06-10T22:13:15.651Z,100189.91
2019-06-10T22:15:46.365Z,100172.59
2019-06-10T22:18:16.137Z,100181.81
2019-06-10T22:20:46.791Z,100191.62
2019-06-10T22:23:16.641Z,100186.06
2019-06-10T22:25:46.800Z,100188.70
2019-06-10T22:28:16.612Z,100174.05
2019-06-10T22:30:47.146Z,100172.94
2019-06-10T22:33:16.867Z,100174.89
2019-06-10T22:35:47.477Z,100183.34
2019-06-10T22:38:17.179Z,100199.50
2019-06-10T22:40:48.844Z,100213.95
2019-06-10T22:43:18.616Z,100211.30
2019-06-10T22:45:52.535Z,100209.03
2019-06-10T22:48:22.484Z,100219.51
2019-06-10T22:50:55.358Z,100206.85
2019-06-10T22:53:25.159Z,100201.39
2019-06-10T22:55:57.411Z,100210.61
2019-06-10T22:58:26.620Z,100203.79
2019-06-10T23:00:57.861Z,100208.94
2019-06-10T23:03:27.503Z,100213.58
2019-06-10T23:05:58.432Z,100219.42
2019-06-10T23:08:29.879Z,100229.20
2019-06-10T23:10:59.877Z,100222.07
2019-06-10T23:13:30.281Z,100231.55
2019-06-10T23:16:02.489Z,100238.80
2019-06-10T23:18:32.050Z,100231.29
2019-06-10T23:21:04.340Z,100236.31
2019-06-10T23:23:33.613Z,100235.62
2019-06-10T23:26:03.377Z,100234.20
2019-06-10T23:28:33.244Z,100234.20
2019-06-10T23:31:05.297Z,100226.98
2019-06-10T23:36:23.596Z,100220.53
2019-06-10T23:38:55.253Z,100226.82
2019-06-10T23:41:24.887Z,100218.30
2019-06-10T23:43:55.043Z,100227.78
2019-06-10T23:46:24.820Z,100232.38
2019-06-10T23:48:55.459Z,100228.58
2019-06-10T23:51:25.117Z,100234.72
2019-06-10T23:53:58.423Z,100237.08
2019-06-10T23:56:26.210Z,100256.05
2019-06-10T23:58:57.481Z,100257.01
